createdAt,value
2023-03-26T00:01:15.054Z,5.09
2023-03-26T00:03:42.921Z,5.11
2023-03-26T00:06:16.486Z,5.12
2023-03-26T00:08:45.919Z,5.16
2023-03-26T00:11:15.563Z,5.19
2023-03-26T00:13:43.728Z,5.23
2023-03-26T00:16:12.463Z,5.26
2023-03-26T00:18:40.014Z,5.28
2023-03-26T00:21:07.971Z,5.31
2023-03-26T00:23:36.068Z,5.35
2023-03-26T00:26:04.462Z,5.39
2023-03-26T00:28:31.375Z,5.42
2023-03-26T00:31:03.891Z,5.45
2023-03-26T00:33:31.614Z,5.56
2023-03-26T00:36:01.930Z,5.74
2023-03-26T00:38:30.516Z,5.96
2023-03-26T00:41:00.669Z,6.14
2023-03-26T00:43:27.385Z,6.29
2023-03-26T00:45:55.646Z,6.40
2023-03-26T00:48:31.562Z,6.51
2023-03-26T00:51:06.545Z,6.62
2023-03-26T00:53:33.209Z,6.71
2023-03-26T00:55:59.796Z,6.78
2023-03-26T00:58:27.547Z,6.80
2023-03-26T01:00:57.422Z,6.83
2023-03-26T01:03:28.090Z,6.83
2023-03-26T01:06:00.999Z,6.82
2023-03-26T01:08:44.967Z,6.82
2023-03-26T01:11:19.675Z,6.82
2023-03-26T01:14:06.703Z,6.81
2023-03-26T01:16:36.641Z,6.79
2023-03-26T01:19:09.040Z,6.75
2023-03-26T01:21:36.304Z,6.69
2023-03-26T01:24:05.219Z,6.65
2023-03-26T01:26:43.591Z,6.62
2023-03-26T01:29:43.084Z,6.55
2023-03-26T01:32:34.020Z,6.47
2023-03-26T01:35:08.284Z,6.37
2023-03-26T01:37:37.597Z,6.29
2023-03-26T01:40:26.440Z,6.19
2023-03-26T01:43:02.236Z,6.09
2023-03-26T01:45:34.687Z,6.02
2023-03-26T01:48:01.835Z,5.97
2023-03-26T01:50:28.830Z,5.95
2023-03-26T01:52:55.321Z,5.95
2023-03-26T01:55:27.180Z,5.95
2023-03-26T01:58:12.559Z,5.95
2023-03-26T02:01:02.613Z,5.97
2023-03-26T02:03:41.940Z,5.97
2023-03-26T02:06:17.237Z,5.99
2023-03-26T02:09:09.155Z,6.01
2023-03-26T02:11:38.500Z,6.03
2023-03-26T02:14:07.503Z,6.06
2023-03-26T02:16:34.687Z,6.10
2023-03-26T02:19:01.715Z,6.12
2023-03-26T02:21:28.903Z,6.11
2023-03-26T02:23:58.118Z,6.10
2023-03-26T02:26:25.143Z,6.09
2023-03-26T02:28:52.061Z,6.06
2023-03-26T02:31:18.570Z,6.04
2023-03-26T02:33:45.201Z,6.01
2023-03-26T02:36:12.014Z,5.98
2023-03-26T02:38:38.597Z,5.96
2023-03-26T02:41:05.829Z,5.95
2023-03-26T02:43:32.659Z,5.96
2023-03-26T02:45:59.325Z,5.94
2023-03-26T02:48:26.210Z,5.92
2023-03-26T02:50:53.159Z,5.90
2023-03-26T02:53:21.496Z,5.89
2023-03-26T02:55:48.403Z,5.87
2023-03-26T02:58:15.229Z,5.85
2023-03-26T03:00:41.712Z,5.84
2023-03-26T03:03:08.369Z,5.83
2023-03-26T03:05:35.911Z,5.79
2023-03-26T03:08:02.581Z,5.72
2023-03-26T03:10:32.866Z,5.68
2023-03-26T03:12:59.944Z,5.62
2023-03-26T03:15:26.938Z,5.58
2023-03-26T03:17:53.789Z,5.54
2023-03-26T03:20:20.337Z,5.51
2023-03-26T03:22:46.883Z,5.46
2023-03-26T03:25:13.936Z,5.42
2023-03-26T03:27:41.944Z,5.39
2023-03-26T03:30:11.092Z,5.35
2023-03-26T03:32:38.333Z,5.30
2023-03-26T03:35:06.177Z,5.25
2023-03-26T03:37:33.012Z,5.21
2023-03-26T03:39:59.718Z,5.17
2023-03-26T03:42:26.217Z,5.14
2023-03-26T03:44:52.930Z,5.08
2023-03-26T03:47:19.409Z,5.02
2023-03-26T03:49:45.947Z,4.96
2023-03-26T03:52:12.901Z,4.88
2023-03-26T03:54:39.613Z,4.80
2023-03-26T03:57:06.430Z,4.71
2023-03-26T03:59:32.965Z,4.64
2023-03-26T04:01:59.743Z,4.59
2023-03-26T04:04:26.611Z,4.52
2023-03-26T04:06:53.302Z,4.45
2023-03-26T04:09:19.954Z,4.37
2023-03-26T04:11:48.445Z,4.29
2023-03-26T04:14:14.979Z,4.23
2023-03-26T04:16:41.527Z,4.16
2023-03-26T04:19:08.263Z,4.14
2023-03-26T04:21:35.183Z,4.17
2023-03-26T04:24:02.010Z,4.18
2023-03-26T04:26:28.558Z,4.20
2023-03-26T04:29:00.167Z,4.22
2023-03-26T04:31:28.298Z,4.28
2023-03-26T04:33:58.810Z,4.38
2023-03-26T04:36:30.729Z,4.46
2023-03-26T04:38:58.458Z,4.51
2023-03-26T04:41:25.257Z,4.55
2023-03-26T04:43:56.002Z,4.59
2023-03-26T04:46:24.063Z,4.65
2023-03-26T04:48:52.141Z,4.71
2023-03-26T04:51:23.500Z,4.79
2023-03-26T04:53:54.530Z,4.86
2023-03-26T04:56:34.608Z,4.93
2023-03-26T04:59:02.085Z,5.01
2023-03-26T05:01:29.036Z,5.09
2023-03-26T05:03:55.741Z,5.18
2023-03-26T05:06:22.745Z,5.28
2023-03-26T05:08:49.397Z,5.34
2023-03-26T05:11:15.820Z,5.41
2023-03-26T05:13:46.064Z,5.58
2023-03-26T05:16:13.505Z,5.76
2023-03-26T05:18:40.080Z,5.98
2023-03-26T05:21:06.817Z,6.22
2023-03-26T05:23:33.504Z,6.47
2023-03-26T05:26:00.196Z,6.77
2023-03-26T05:28:26.643Z,7.11
2023-03-26T05:30:54.431Z,7.48
2023-03-26T05:33:23.315Z,7.77
2023-03-26T05:36:06.008Z,8.15
2023-03-26T05:38:33.293Z,8.67
2023-03-26T05:41:06.137Z,9.13
2023-03-26T05:43:33.562Z,9.54
2023-03-26T05:46:00.396Z,9.87
2023-03-26T05:48:27.429Z,10.27
2023-03-26T05:50:57.030Z,10.74
2023-03-26T05:53:26.176Z,10.95
2023-03-26T05:55:53.718Z,10.92
2023-03-26T05:58:20.364Z,11.12
2023-03-26T06:00:47.110Z,11.43
2023-03-26T06:03:13.652Z,11.38
2023-03-26T06:05:40.475Z,11.28
2023-03-26T06:08:07.324Z,11.11
2023-03-26T06:10:33.843Z,10.93
2023-03-26T06:13:00.477Z,10.77
2023-03-26T06:15:28.671Z,10.60
2023-03-26T06:17:55.589Z,10.43
2023-03-26T06:20:22.247Z,10.34
2023-03-26T06:22:48.722Z,10.24
2023-03-26T06:25:15.273Z,10.22
2023-03-26T06:27:41.918Z,10.39
2023-03-26T06:30:09.065Z,10.82
2023-03-26T06:32:35.544Z,11.35
2023-03-26T06:35:02.129Z,11.79
2023-03-26T06:37:28.926Z,12.06
2023-03-26T06:39:55.368Z,12.37
2023-03-26T06:42:22.490Z,12.53
2023-03-26T06:45:09.688Z,12.58
2023-03-26T06:47:36.256Z,12.57
2023-03-26T06:50:02.798Z,12.76
2023-03-26T06:52:29.407Z,12.94
2023-03-26T06:54:56.028Z,12.83
2023-03-26T06:57:22.500Z,12.88
2023-03-26T06:59:48.969Z,12.96
2023-03-26T07:02:15.486Z,12.90
2023-03-26T07:04:41.915Z,12.87
2023-03-26T07:07:08.712Z,13.06
2023-03-26T07:09:35.220Z,13.17
2023-03-26T07:12:01.883Z,13.41
2023-03-26T07:14:28.755Z,13.61
2023-03-26T07:16:55.393Z,13.95
2023-03-26T07:19:21.900Z,13.95
2023-03-26T07:21:49.309Z,14.21
2023-03-26T07:24:16.284Z,14.50
2023-03-26T07:26:50.553Z,14.66
2023-03-26T07:29:26.250Z,14.71
2023-03-26T07:32:11.682Z,14.73
2023-03-26T07:34:51.437Z,14.71
2023-03-26T07:37:46.001Z,14.59
2023-03-26T07:40:37.021Z,14.38
2023-03-26T07:43:22.020Z,14.24
2023-03-26T07:45:48.973Z,13.76
2023-03-26T07:48:19.293Z,13.32
2023-03-26T07:50:46.669Z,13.02
2023-03-26T07:53:14.311Z,12.92
2023-03-26T07:55:52.645Z,12.84
2023-03-26T07:58:41.194Z,12.61
2023-03-26T08:01:39.517Z,12.35
2023-03-26T08:04:23.747Z,12.26
2023-03-26T08:07:24.174Z,12.17
2023-03-26T08:10:06.428Z,12.23
2023-03-26T08:12:47.010Z,12.26
2023-03-26T08:15:19.630Z,12.16
2023-03-26T08:17:54.183Z,12.05
2023-03-26T08:20:24.215Z,12.00
2023-03-26T08:23:01.842Z,11.98
2023-03-26T08:25:31.460Z,11.96
2023-03-26T08:28:09.279Z,11.93
2023-03-26T08:30:35.944Z,11.84
2023-03-26T08:33:12.567Z,11.83
2023-03-26T08:35:40.144Z,11.82
2023-03-26T08:38:06.615Z,11.73
2023-03-26T08:41:05.527Z,11.58
2023-03-26T08:43:56.846Z,11.54
2023-03-26T08:46:34.598Z,11.58
2023-03-26T08:49:36.421Z,11.65
2023-03-26T08:52:21.006Z,11.79
2023-03-26T08:55:01.770Z,12.03
2023-03-26T08:57:59.761Z,12.18
2023-03-26T09:00:50.142Z,12.54
2023-03-26T09:03:35.515Z,12.63
2023-03-26T09:06:13.134Z,12.70
2023-03-26T09:09:19.064Z,12.63
2023-03-26T09:11:52.027Z,12.66
2023-03-26T09:14:33.921Z,12.64
2023-03-26T09:17:09.669Z,12.53
2023-03-26T09:20:10.520Z,12.39
2023-03-26T09:23:01.362Z,12.48
2023-03-26T09:25:46.314Z,12.57
2023-03-26T09:28:50.377Z,12.62
2023-03-26T09:31:45.265Z,12.72
2023-03-26T09:34:28.018Z,13.17
2023-03-26T09:37:26.003Z,13.34
2023-03-26T09:40:16.417Z,13.23
2023-03-26T09:42:55.858Z,13.16
2023-03-26T09:45:50.532Z,13.24
2023-03-26T09:48:36.305Z,13.89
2023-03-26T09:51:08.740Z,14.44
2023-03-26T09:54:22.440Z,14.89
2023-03-26T09:57:10.240Z,15.34
2023-03-26T10:00:02.227Z,15.66
2023-03-26T10:02:47.994Z,15.96
2023-03-26T10:05:29.693Z,16.24
2023-03-26T10:08:23.471Z,16.21
2023-03-26T10:10:55.933Z,16.15
2023-03-26T10:13:25.648Z,15.76
2023-03-26T10:16:13.896Z,15.43
2023-03-26T10:18:56.048Z,14.95
2023-03-26T10:21:51.335Z,14.62
2023-03-26T10:24:24.473Z,14.27
2023-03-26T10:27:10.004Z,14.17
2023-03-26T10:29:57.683Z,14.03
2023-03-26T10:32:50.994Z,13.80
2023-03-26T10:35:21.987Z,13.62
2023-03-26T10:38:13.094Z,13.41
2023-03-26T10:41:02.174Z,13.10
2023-03-26T10:44:07.354Z,12.96
2023-03-26T10:46:54.171Z,12.99
2023-03-26T10:50:00.751Z,12.91
2023-03-26T10:52:40.407Z,12.77
2023-03-26T10:55:26.671Z,12.65
2023-03-26T10:57:56.509Z,12.47
2023-03-26T11:00:25.550Z,12.32
2023-03-26T11:03:01.654Z,12.18
2023-03-26T11:05:47.820Z,12.13
2023-03-26T11:08:50.372Z,12.14
2023-03-26T11:11:32.663Z,12.17
2023-03-26T11:14:18.994Z,12.33
2023-03-26T11:17:39.510Z,12.52
2023-03-26T11:20:15.782Z,12.67
2023-03-26T11:22:59.367Z,12.81
2023-03-26T11:25:40.423Z,12.88
2023-03-26T11:28:13.902Z,12.98
2023-03-26T11:30:46.409Z,12.95
2023-03-26T11:33:22.940Z,12.88
2023-03-26T11:35:54.032Z,12.88
2023-03-26T11:38:31.912Z,12.86
2023-03-26T11:41:01.269Z,12.75
2023-03-26T11:43:36.284Z,12.66
2023-03-26T11:46:14.526Z,12.57
2023-03-26T11:48:48.310Z,12.59
2023-03-26T11:51:23.775Z,12.69
2023-03-26T11:53:50.322Z,12.87
2023-03-26T11:56:22.795Z,13.05
2023-03-26T11:59:04.482Z,13.29
2023-03-26T12:01:49.876Z,13.54
2023-03-26T12:04:21.153Z,13.77
2023-03-26T12:07:06.906Z,14.10
2023-03-26T12:09:33.442Z,14.35
2023-03-26T12:12:03.908Z,14.54
2023-03-26T12:14:34.558Z,14.54
2023-03-26T12:17:07.612Z,14.48
2023-03-26T12:19:40.967Z,14.43
2023-03-26T12:22:34.724Z,14.39
2023-03-26T12:25:03.029Z,14.44
2023-03-26T12:27:29.576Z,14.56
2023-03-26T12:30:09.171Z,14.57
2023-03-26T12:32:46.127Z,14.48
2023-03-26T12:35:26.551Z,14.36
2023-03-26T12:37:54.776Z,14.34
2023-03-26T12:40:35.451Z,14.37
2023-03-26T12:44:46.871Z,14.37
2023-03-26T12:47:59.418Z,14.30
2023-03-26T12:48:43.741Z,14.11
2023-03-26T12:51:38.545Z,13.87
2023-03-26T12:54:29.978Z,13.63
2023-03-26T12:57:16.990Z,13.40
2023-03-26T13:00:21.555Z,13.27
2023-03-26T13:03:15.449Z,13.19
2023-03-26T13:05:56.209Z,13.24
2023-03-26T13:08:53.485Z,13.43
2023-03-26T13:11:41.491Z,13.81
2023-03-26T13:14:44.836Z,14.05
2023-03-26T13:17:31.648Z,14.14
2023-03-26T13:20:33.432Z,14.17
2023-03-26T13:23:20.407Z,14.17
2023-03-26T13:26:08.621Z,14.24
2023-03-26T13:28:46.812Z,14.28
2023-03-26T13:31:31.561Z,14.52
2023-03-26T13:34:13.457Z,14.69
2023-03-26T13:37:03.914Z,14.74
2023-03-26T13:39:49.502Z,14.82
2023-03-26T13:42:22.747Z,14.97
2023-03-26T13:45:08.201Z,14.98
2023-03-26T13:47:39.300Z,15.17
2023-03-26T13:50:15.360Z,15.40
2023-03-26T13:52:48.749Z,15.58
2023-03-26T13:55:33.706Z,15.82
2023-03-26T13:58:16.846Z,15.86
2023-03-26T14:01:15.161Z,15.74
2023-03-26T14:04:00.268Z,15.60
2023-03-26T14:06:35.691Z,15.49
2023-03-26T14:09:22.761Z,15.42
2023-03-26T14:11:55.547Z,15.22
2023-03-26T14:14:43.629Z,15.22
2023-03-26T14:17:31.317Z,15.32
2023-03-26T14:20:35.510Z,15.91
2023-03-26T14:23:23.342Z,16.82
2023-03-26T14:26:25.649Z,16.60
2023-03-26T14:29:29.235Z,17.22
2023-03-26T14:32:24.783Z,17.91
2023-03-26T14:34:51.374Z,17.89
2023-03-26T14:37:43.141Z,17.48
2023-03-26T14:40:19.026Z,17.78
2023-03-26T14:42:56.378Z,17.36
2023-03-26T14:45:39.853Z,16.75
2023-03-26T14:48:30.625Z,16.14
2023-03-26T14:51:26.818Z,15.61
2023-03-26T14:54:07.934Z,15.22
2023-03-26T14:57:05.845Z,15.09
2023-03-26T15:00:17.283Z,15.28
2023-03-26T15:03:02.106Z,15.94
2023-03-26T15:05:56.449Z,15.80
2023-03-26T15:08:50.868Z,15.53
2023-03-26T15:11:23.010Z,15.36
2023-03-26T15:14:02.922Z,15.09
2023-03-26T15:16:50.656Z,14.79
2023-03-26T15:19:46.386Z,14.49
2023-03-26T15:22:44.613Z,14.30
2023-03-26T15:25:45.687Z,14.26
2023-03-26T15:28:32.848Z,14.13
2023-03-26T15:31:24.294Z,14.04
2023-03-26T15:34:03.279Z,13.93
2023-03-26T15:37:04.279Z,13.85
2023-03-26T15:39:33.680Z,13.83
2023-03-26T15:42:19.271Z,13.87
2023-03-26T15:44:58.716Z,13.95
2023-03-26T15:47:52.040Z,14.07
2023-03-26T15:50:36.338Z,14.09
2023-03-26T15:53:30.222Z,14.05
2023-03-26T15:56:07.714Z,13.97
2023-03-26T15:58:46.452Z,13.89
2023-03-26T16:01:29.857Z,13.76
2023-03-26T16:04:36.149Z,13.61
2023-03-26T16:07:13.391Z,13.51
2023-03-26T16:10:16.787Z,13.34
2023-03-26T16:12:58.316Z,13.30
2023-03-26T16:15:29.070Z,13.32
2023-03-26T16:18:17.691Z,13.29
2023-03-26T16:20:54.944Z,13.15
2023-03-26T16:23:57.501Z,13.09
2023-03-26T16:26:44.688Z,13.00
2023-03-26T16:29:14.920Z,13.03
2023-03-26T16:32:10.139Z,12.93
2023-03-26T16:34:58.870Z,12.79
2023-03-26T16:37:48.267Z,12.65
2023-03-26T16:40:17.871Z,12.44
2023-03-26T16:43:13.908Z,12.25
2023-03-26T16:46:03.379Z,12.02
2023-03-26T16:48:45.865Z,11.81
2023-03-26T16:51:26.361Z,11.63
2023-03-26T16:54:08.465Z,11.45
2023-03-26T16:56:44.225Z,11.25
2023-03-26T16:59:32.994Z,11.08
2023-03-26T17:02:12.652Z,10.88
2023-03-26T17:04:44.300Z,10.67
2023-03-26T17:07:25.162Z,10.47
2023-03-26T17:09:56.284Z,10.26
2023-03-26T17:12:30.127Z,10.06
2023-03-26T17:15:41.138Z,9.89
2023-03-26T17:18:23.558Z,9.68
2023-03-26T17:21:25.607Z,9.48
2023-03-26T17:24:15.241Z,9.26
2023-03-26T17:27:07.707Z,9.08
2023-03-26T17:30:00.508Z,8.93
2023-03-26T17:32:56.531Z,8.79
2023-03-26T17:35:37.101Z,8.61
2023-03-26T17:38:04.437Z,8.53
2023-03-26T17:40:46.925Z,8.46
2023-03-26T17:43:46.074Z,8.34
2023-03-26T17:46:35.998Z,8.18
2023-03-26T17:49:02.489Z,8.03
2023-03-26T17:51:47.778Z,7.90
2023-03-26T17:54:33.203Z,7.78
2023-03-26T17:57:19.583Z,7.69
2023-03-26T17:59:47.968Z,7.57
2023-03-26T18:02:22.261Z,7.46
2023-03-26T18:04:53.593Z,7.34
2023-03-26T18:07:50.619Z,7.25
2023-03-26T18:10:39.195Z,7.15
2023-03-26T18:13:17.033Z,7.06
2023-03-26T18:15:54.418Z,6.98
2023-03-26T18:18:35.110Z,6.90
2023-03-26T18:21:05.818Z,6.78
2023-03-26T18:23:45.784Z,6.71
2023-03-26T18:26:16.360Z,6.66
2023-03-26T18:28:49.106Z,6.60
2023-03-26T18:31:22.646Z,6.54
2023-03-26T18:33:54.945Z,6.48
2023-03-26T18:36:24.719Z,6.41
2023-03-26T18:38:58.024Z,6.37
2023-03-26T18:41:37.989Z,6.33
2023-03-26T18:44:06.490Z,6.34
2023-03-26T18:46:34.187Z,6.35
2023-03-26T18:49:01.841Z,6.37
2023-03-26T18:51:30.700Z,6.35
2023-03-26T18:54:02.691Z,6.30
2023-03-26T18:56:31.078Z,6.27
2023-03-26T18:58:59.871Z,6.25
2023-03-26T19:01:33.104Z,6.25
2023-03-26T19:04:03.762Z,6.27
2023-03-26T19:06:33.369Z,6.28
2023-03-26T19:08:59.975Z,6.31
2023-03-26T19:11:28.157Z,6.36
2023-03-26T19:14:07.914Z,6.38
2023-03-26T19:16:34.971Z,6.38
2023-03-26T19:19:06.374Z,6.40
2023-03-26T19:21:34.396Z,6.42
2023-03-26T19:24:01.762Z,6.42
2023-03-26T19:26:28.736Z,6.45
2023-03-26T19:28:56.404Z,6.51
2023-03-26T19:31:26.358Z,6.58
2023-03-26T19:34:11.605Z,6.63
2023-03-26T19:36:54.245Z,6.69
2023-03-26T19:39:34.701Z,6.70
2023-03-26T19:42:05.563Z,6.64
2023-03-26T19:44:36.704Z,6.58
2023-03-26T19:47:07.750Z,6.51
2023-03-26T19:49:47.784Z,6.46
2023-03-26T19:52:20.301Z,6.43
2023-03-26T19:55:00.251Z,6.40
2023-03-26T19:57:31.963Z,6.39
2023-03-26T19:59:59.386Z,6.40
2023-03-26T20:02:26.881Z,6.42
2023-03-26T20:04:53.720Z,6.44
2023-03-26T20:07:22.347Z,6.45
2023-03-26T20:10:01.930Z,6.46
2023-03-26T20:12:29.413Z,6.44
2023-03-26T20:14:55.837Z,6.45
2023-03-26T20:17:22.317Z,6.48
2023-03-26T20:19:48.849Z,6.51
2023-03-26T20:22:18.445Z,6.53
2023-03-26T20:24:44.887Z,6.57
2023-03-26T20:27:12.421Z,6.58
2023-03-26T20:29:38.946Z,6.62
2023-03-26T20:32:26.999Z,6.65
2023-03-26T20:34:53.802Z,6.68
2023-03-26T20:37:20.273Z,6.68
2023-03-26T20:39:46.729Z,6.66
2023-03-26T20:42:14.719Z,6.65
2023-03-26T20:44:42.824Z,6.62
2023-03-26T20:47:12.228Z,6.59
2023-03-26T20:49:38.928Z,6.55
2023-03-26T20:52:05.780Z,6.52
2023-03-26T20:54:32.316Z,6.52
2023-03-26T20:56:59.311Z,6.54
2023-03-26T20:59:27.375Z,6.53
2023-03-26T21:01:55.424Z,6.52
2023-03-26T21:04:22.070Z,6.55
2023-03-26T21:06:48.628Z,6.60
2023-03-26T21:09:17.890Z,6.64
2023-03-26T21:12:01.500Z,6.66
2023-03-26T21:14:34.496Z,6.72
2023-03-26T21:17:01.540Z,6.78
2023-03-26T21:19:28.793Z,6.85
2023-03-26T21:22:02.246Z,6.91
2023-03-26T21:24:43.498Z,6.94
2023-03-26T21:27:20.844Z,6.98
2023-03-26T21:29:47.850Z,7.01
2023-03-26T21:32:17.334Z,7.01
2023-03-26T21:34:55.741Z,6.99
2023-03-26T21:37:25.202Z,6.99
2023-03-26T21:39:52.154Z,6.97
2023-03-26T21:42:19.125Z,6.95
2023-03-26T21:44:45.977Z,6.92
2023-03-26T21:47:12.993Z,6.91
2023-03-26T21:49:39.894Z,6.89
2023-03-26T21:52:07.363Z,6.87
2023-03-26T21:54:34.400Z,6.85
2023-03-26T21:57:38.734Z,6.84
2023-03-26T22:00:12.800Z,6.82
2023-03-26T22:02:54.783Z,6.78
2023-03-26T22:06:04.118Z,6.74
2023-03-26T22:08:41.203Z,6.68
2023-03-26T22:11:09.719Z,6.61
2023-03-26T22:13:36.551Z,6.56
2023-03-26T22:16:03.238Z,6.52
2023-03-26T22:18:29.836Z,6.49
2023-03-26T22:20:57.817Z,6.47
2023-03-26T22:23:24.514Z,6.53
2023-03-26T22:25:50.994Z,6.58
2023-03-26T22:28:18.410Z,6.70
2023-03-26T22:30:45.391Z,6.78
2023-03-26T22:33:13.692Z,6.81
2023-03-26T22:35:41.855Z,6.80
2023-03-26T22:38:08.568Z,6.82
2023-03-26T22:40:35.673Z,6.86
2023-03-26T22:43:02.097Z,6.91
2023-03-26T22:45:28.667Z,6.96
2023-03-26T22:48:03.490Z,7.02
2023-03-26T22:50:32.182Z,7.05
2023-03-26T22:52:58.952Z,7.07
2023-03-26T22:55:28.719Z,7.08
2023-03-26T22:57:56.484Z,7.08
2023-03-26T23:00:23.121Z,7.05
2023-03-26T23:02:49.912Z,7.04
2023-03-26T23:05:17.790Z,7.12
2023-03-26T23:07:45.806Z,7.18
2023-03-26T23:10:12.890Z,7.22
2023-03-26T23:12:40.035Z,7.24
2023-03-26T23:15:07.497Z,7.22
2023-03-26T23:17:35.294Z,7.21
2023-03-26T23:20:07.100Z,7.24
2023-03-26T23:22:33.851Z,7.26
2023-03-26T23:25:00.589Z,7.26
2023-03-26T23:27:27.239Z,7.27
2023-03-26T23:29:53.767Z,7.27
2023-03-26T23:32:24.040Z,7.25
2023-03-26T23:34:53.658Z,7.22
2023-03-26T23:37:20.199Z,7.17
2023-03-26T23:39:46.648Z,7.14
2023-03-26T23:42:13.159Z,7.09
2023-03-26T23:44:39.634Z,7.06
2023-03-26T23:47:06.111Z,7.06
2023-03-26T23:49:32.560Z,7.06
2023-03-26T23:51:59.108Z,7.05
2023-03-26T23:54:25.607Z,7.04
2023-03-26T23:56:52.829Z,7.01
2023-03-26T23:59:19.300Z,6.96
